createdAt,value
2022-08-16T00:02:30.670Z,56.86
2022-08-16T00:04:59.689Z,56.53
2022-08-16T00:07:29.323Z,56.33
2022-08-16T00:10:00.138Z,56.35
2022-08-16T00:12:29.764Z,55.56
2022-08-16T00:14:59.302Z,54.96
2022-08-16T00:17:26.806Z,55.20
2022-08-16T00:19:56.245Z,55.51
2022-08-16T00:22:27.770Z,55.02
2022-08-16T00:24:54.988Z,54.71
2022-08-16T00:27:23.036Z,55.10
2022-08-16T00:30:08.335Z,54.70
2022-08-16T00:32:38.386Z,54.55
2022-08-16T00:35:15.337Z,54.90
2022-08-16T00:37:58.363Z,54.42
2022-08-16T00:40:43.953Z,54.53
2022-08-16T00:43:40.713Z,55.09
2022-08-16T00:46:32.943Z,54.67
2022-08-16T00:49:05.774Z,54.48
2022-08-16T00:51:32.961Z,54.76
2022-08-16T00:54:00.769Z,54.86
2022-08-16T00:56:58.342Z,54.64
2022-08-16T00:59:21.896Z,55.17
2022-08-16T01:01:51.424Z,54.33
2022-08-16T01:04:29.513Z,55.43
2022-08-16T01:07:01.806Z,55.68
2022-08-16T01:09:37.321Z,55.55
2022-08-16T01:12:08.492Z,55.65
2022-08-16T01:14:41.525Z,55.81
2022-08-16T01:17:12.659Z,55.63
2022-08-16T01:19:44.407Z,55.85
2022-08-16T01:22:47.814Z,55.92
2022-08-16T01:25:33.984Z,55.82
2022-08-16T01:28:07.406Z,55.93
2022-08-16T01:30:49.535Z,55.81
2022-08-16T01:33:19.238Z,56.74
2022-08-16T01:35:52.634Z,56.71
2022-08-16T01:38:57.449Z,56.96
2022-08-16T01:41:30.021Z,56.50
2022-08-16T01:43:57.184Z,56.59
2022-08-16T01:46:42.674Z,56.86
2022-08-16T01:49:43.287Z,57.09
2022-08-16T01:52:29.231Z,57.44
2022-08-16T01:54:57.652Z,57.88
2022-08-16T01:57:24.829Z,58.32
2022-08-16T01:59:54.752Z,58.96
2022-08-16T02:02:27.094Z,59.21
2022-08-16T02:04:57.417Z,59.33
2022-08-16T02:07:24.535Z,60.35
2022-08-16T02:09:56.978Z,60.02
2022-08-16T02:12:50.817Z,60.36
2022-08-16T02:15:17.287Z,60.58
2022-08-16T02:17:52.666Z,60.76
2022-08-16T02:20:26.122Z,61.01
2022-08-16T02:22:55.228Z,61.09
2022-08-16T02:25:23.538Z,61.61
2022-08-16T02:27:51.510Z,61.47
2022-08-16T02:30:37.058Z,61.92
2022-08-16T02:33:11.544Z,62.42
2022-08-16T02:35:53.736Z,62.75
2022-08-16T02:38:22.693Z,62.68
2022-08-16T02:40:49.569Z,62.80
2022-08-16T02:43:16.519Z,63.51
2022-08-16T02:45:43.677Z,63.52
2022-08-16T02:48:28.021Z,63.93
2022-08-16T02:51:06.415Z,63.90
2022-08-16T02:53:43.282Z,64.06
2022-08-16T02:56:14.996Z,63.53
2022-08-16T02:58:44.147Z,62.05
2022-08-16T03:01:24.653Z,63.18
2022-08-16T03:04:41.160Z,62.81
2022-08-16T03:06:47.557Z,62.71
2022-08-16T03:09:16.316Z,62.78
2022-08-16T03:11:44.886Z,62.98
2022-08-16T03:14:12.780Z,62.96
2022-08-16T03:16:42.346Z,62.77
2022-08-16T03:19:48.391Z,62.99
2022-08-16T03:22:18.858Z,62.16
2022-08-16T03:24:57.363Z,61.87
2022-08-16T03:27:25.450Z,61.92
2022-08-16T03:29:59.267Z,62.11
2022-08-16T03:32:26.781Z,62.43
2022-08-16T03:34:54.113Z,62.05
2022-08-16T03:37:21.240Z,61.78
2022-08-16T03:39:48.147Z,61.76
2022-08-16T03:42:23.330Z,61.95
2022-08-16T03:44:50.439Z,62.09
2022-08-16T03:47:19.750Z,61.93
2022-08-16T03:49:52.362Z,62.32
2022-08-16T03:52:23.567Z,62.17
2022-08-16T03:54:53.232Z,62.49
2022-08-16T03:57:32.087Z,62.02
2022-08-16T04:00:20.496Z,62.00
2022-08-16T04:03:07.349Z,62.15
2022-08-16T04:05:37.845Z,61.93
2022-08-16T04:08:15.141Z,61.35
2022-08-16T04:10:52.813Z,61.30
2022-08-16T04:13:59.127Z,60.86
2022-08-16T04:16:08.052Z,61.21
2022-08-16T04:18:38.740Z,61.45
2022-08-16T04:21:06.186Z,60.79
2022-08-16T04:23:33.179Z,61.28
2022-08-16T04:26:01.841Z,60.60
2022-08-16T04:28:54.531Z,60.92
2022-08-16T04:31:16.704Z,60.74
2022-08-16T04:33:50.906Z,60.27
2022-08-16T04:36:20.250Z,60.50
2022-08-16T04:38:50.142Z,59.75
2022-08-16T04:41:19.394Z,60.09
2022-08-16T04:43:59.960Z,59.97
2022-08-16T04:47:00.789Z,59.73
2022-08-16T04:49:13.833Z,59.84
2022-08-16T04:51:43.997Z,59.24
2022-08-16T04:54:20.847Z,58.87
2022-08-16T04:56:48.716Z,59.18
2022-08-16T04:59:15.691Z,58.89
2022-08-16T05:01:58.304Z,58.49
2022-08-16T05:04:25.869Z,58.58
2022-08-16T05:06:58.028Z,57.70
2022-08-16T05:09:24.910Z,58.12
2022-08-16T05:11:51.866Z,58.22
2022-08-16T05:14:20.320Z,58.16
2022-08-16T05:17:05.581Z,57.62
2022-08-16T05:19:35.935Z,57.33
2022-08-16T05:22:03.854Z,56.89
2022-08-16T05:24:31.472Z,56.82
2022-08-16T05:26:58.411Z,57.07
2022-08-16T05:29:57.417Z,56.76
2022-08-16T05:32:32.776Z,56.99
2022-08-16T05:34:59.217Z,56.93
2022-08-16T05:37:26.784Z,56.16
2022-08-16T05:40:06.928Z,55.57
2022-08-16T05:42:35.764Z,55.76
2022-08-16T05:45:22.090Z,55.57
2022-08-16T05:47:59.523Z,54.92
2022-08-16T05:50:28.327Z,54.91
2022-08-16T05:53:01.659Z,55.31
2022-08-16T05:55:28.596Z,54.96
2022-08-16T05:57:57.212Z,55.21
2022-08-16T06:00:25.307Z,54.87
2022-08-16T06:02:52.539Z,54.80
2022-08-16T06:05:19.831Z,54.32
2022-08-16T06:07:58.373Z,53.79
2022-08-16T06:10:33.175Z,54.23
2022-08-16T06:13:00.306Z,53.51
2022-08-16T06:15:27.571Z,53.48
2022-08-16T06:17:59.053Z,52.89
2022-08-16T06:20:35.168Z,53.00
2022-08-16T06:23:16.845Z,53.11
2022-08-16T06:25:44.280Z,52.26
2022-08-16T06:28:35.791Z,52.00
2022-08-16T06:31:05.829Z,51.88
2022-08-16T06:33:41.997Z,51.47
2022-08-16T06:36:10.608Z,50.23
2022-08-16T06:38:38.758Z,50.43
2022-08-16T06:41:23.316Z,49.90
2022-08-16T06:43:54.118Z,49.54
2022-08-16T06:46:31.936Z,49.65
2022-08-16T06:49:00.697Z,49.55
2022-08-16T06:51:45.680Z,49.49
2022-08-16T06:54:14.901Z,49.42
2022-08-16T06:56:42.635Z,48.62
2022-08-16T06:59:10.634Z,48.74
2022-08-16T07:01:43.071Z,47.92
2022-08-16T07:04:13.451Z,47.94
2022-08-16T07:07:00.964Z,47.00
2022-08-16T07:09:29.745Z,46.59
2022-08-16T07:12:03.223Z,46.61
2022-08-16T07:14:31.246Z,46.15
2022-08-16T07:16:59.941Z,46.18
2022-08-16T07:20:03.991Z,45.63
2022-08-16T07:22:38.767Z,45.39
2022-08-16T07:25:12.029Z,44.94
2022-08-16T07:27:40.061Z,44.23
2022-08-16T07:30:45.647Z,44.45
2022-08-16T07:33:00.367Z,44.31
2022-08-16T07:35:27.323Z,44.20
2022-08-16T07:37:54.423Z,43.74
2022-08-16T07:40:36.937Z,43.46
2022-08-16T07:43:08.695Z,43.26
2022-08-16T07:45:37.102Z,42.95
2022-08-16T07:48:11.106Z,43.19
2022-08-16T07:50:57.851Z,43.49
2022-08-16T07:53:28.932Z,43.28
2022-08-16T07:55:56.567Z,42.87
2022-08-16T07:58:34.167Z,41.70
2022-08-16T08:01:10.585Z,41.51
2022-08-16T08:03:48.468Z,41.57
2022-08-16T08:06:20.978Z,41.97
2022-08-16T08:08:57.482Z,41.52
2022-08-16T08:11:28.237Z,41.84
2022-08-16T08:13:57.585Z,41.70
2022-08-16T08:16:31.468Z,41.58
2022-08-16T08:19:02.892Z,41.17
2022-08-16T08:21:58.314Z,41.73
2022-08-16T08:24:18.103Z,40.25
2022-08-16T08:26:50.380Z,40.15
2022-08-16T08:29:22.945Z,39.76
2022-08-16T08:31:53.218Z,40.05
2022-08-16T08:34:22.155Z,39.61
2022-08-16T08:36:54.097Z,39.41
2022-08-16T08:39:22.568Z,39.71
2022-08-16T08:41:50.425Z,39.32
2022-08-16T08:44:29.007Z,38.49
2022-08-16T08:47:02.012Z,38.81
2022-08-16T08:49:46.740Z,39.04
2022-08-16T08:52:35.136Z,39.04
2022-08-16T08:55:10.318Z,38.83
2022-08-16T08:57:42.129Z,38.86
2022-08-16T09:00:13.637Z,38.87
2022-08-16T09:02:44.401Z,38.77
2022-08-16T09:05:16.353Z,39.43
2022-08-16T09:08:01.326Z,39.49
2022-08-16T09:10:31.593Z,39.66
2022-08-16T09:13:01.425Z,39.20
2022-08-16T09:15:33.196Z,38.20
2022-08-16T09:18:24.518Z,37.97
2022-08-16T09:20:59.432Z,37.86
2022-08-16T09:23:29.439Z,37.48
2022-08-16T09:25:56.437Z,37.75
2022-08-16T09:29:15.269Z,37.05
2022-08-16T09:31:10.934Z,36.76
2022-08-16T09:33:39.362Z,36.87
2022-08-16T09:36:12.330Z,37.21
2022-08-16T09:38:59.857Z,37.15
2022-08-16T09:41:27.051Z,37.96
2022-08-16T09:43:59.781Z,36.72
2022-08-16T09:46:44.585Z,37.30
2022-08-16T09:49:12.799Z,36.93
2022-08-16T09:51:40.403Z,36.72
2022-08-16T09:54:09.739Z,36.12
2022-08-16T09:56:39.490Z,36.59
2022-08-16T09:59:21.055Z,36.00
2022-08-16T10:01:51.688Z,34.85
2022-08-16T10:04:31.699Z,35.21
2022-08-16T10:07:15.317Z,35.58
2022-08-16T10:09:53.955Z,35.90
2022-08-16T10:12:46.032Z,35.60
2022-08-16T10:15:21.035Z,35.17
2022-08-16T10:18:00.212Z,34.84
2022-08-16T10:20:41.068Z,35.09
2022-08-16T10:23:17.309Z,32.85
2022-08-16T10:27:16.383Z,31.34
2022-08-16T10:28:39.852Z,30.17
2022-08-16T10:31:09.088Z,29.22
2022-08-16T10:33:41.903Z,28.79
2022-08-16T10:36:12.212Z,29.05
2022-08-16T10:38:58.898Z,29.07
2022-08-16T10:41:25.780Z,28.35
2022-08-16T10:43:52.726Z,28.26
2022-08-16T10:46:39.189Z,27.43
2022-08-16T10:49:06.436Z,26.79
2022-08-16T10:52:00.787Z,26.53
2022-08-16T10:54:29.277Z,26.62
2022-08-16T10:57:03.986Z,27.04
2022-08-16T10:59:45.985Z,27.15
2022-08-16T11:03:37.432Z,26.99
2022-08-16T11:05:12.436Z,26.15
2022-08-16T11:07:51.609Z,26.14
2022-08-16T11:19:06.456Z,23.64
2022-08-16T11:22:39.155Z,23.99
2022-08-16T11:24:42.628Z,23.34
2022-08-16T11:27:23.356Z,22.79
2022-08-16T11:29:56.701Z,22.69
2022-08-16T11:32:31.474Z,22.18
2022-08-16T11:35:15.050Z,21.93
2022-08-16T11:38:47.285Z,22.22
2022-08-16T11:40:52.808Z,23.50
2022-08-16T11:43:24.939Z,24.03
2022-08-16T11:45:55.317Z,24.69
2022-08-16T11:48:29.038Z,24.47
2022-08-16T11:50:56.457Z,24.27
2022-08-16T11:53:24.362Z,24.83
2022-08-16T11:55:54.958Z,24.77
2022-08-16T11:58:25.428Z,24.84
2022-08-16T12:00:55.007Z,24.19
2022-08-16T12:03:34.658Z,24.75
2022-08-16T12:06:30.395Z,24.66
2022-08-16T12:09:00.981Z,23.50
2022-08-16T12:11:31.398Z,22.49
2022-08-16T12:14:01.114Z,21.25
2022-08-16T12:16:31.264Z,21.09
2022-08-16T12:19:06.199Z,21.35
2022-08-16T12:21:58.420Z,21.57
2022-08-16T12:24:24.396Z,21.06
2022-08-16T12:26:52.642Z,21.31
2022-08-16T12:29:21.124Z,20.81
2022-08-16T12:32:01.731Z,20.15
2022-08-16T12:34:38.593Z,20.12
2022-08-16T12:37:17.737Z,20.19
2022-08-16T12:39:50.817Z,20.10
2022-08-16T12:42:20.556Z,19.49
2022-08-16T12:44:48.605Z,19.90
2022-08-16T12:47:37.204Z,21.03
2022-08-16T12:50:10.593Z,20.66
2022-08-16T12:52:48.938Z,19.98
2022-08-16T12:55:20.566Z,20.21
2022-08-16T12:57:58.570Z,21.23
2022-08-16T13:00:33.327Z,22.31
2022-08-16T13:03:03.036Z,22.41
2022-08-16T13:05:36.706Z,22.44
2022-08-16T13:08:03.883Z,22.43
2022-08-16T13:10:36.973Z,23.08
2022-08-16T13:13:06.517Z,23.77
2022-08-16T13:15:36.247Z,23.62
2022-08-16T13:18:24.303Z,23.72
2022-08-16T13:20:54.489Z,24.33
2022-08-16T13:23:23.393Z,24.80
2022-08-16T13:25:51.888Z,24.68
2022-08-16T13:28:21.952Z,23.63
2022-08-16T13:30:52.172Z,24.26
2022-08-16T13:33:30.558Z,24.55
2022-08-16T13:36:00.383Z,23.59
2022-08-16T13:38:31.469Z,23.12
2022-08-16T13:41:05.294Z,23.23
2022-08-16T13:43:35.858Z,23.24
2022-08-16T13:46:04.365Z,23.20
2022-08-16T13:48:43.111Z,23.18
2022-08-16T13:51:18.011Z,23.02
2022-08-16T13:53:59.395Z,23.68
2022-08-16T13:56:37.061Z,24.87
2022-08-16T13:59:19.198Z,25.67
2022-08-16T14:01:55.422Z,25.58
2022-08-16T14:04:30.161Z,25.99
2022-08-16T14:06:59.966Z,26.15
2022-08-16T14:09:29.064Z,26.60
2022-08-16T14:12:00.678Z,26.24
2022-08-16T14:14:29.990Z,26.07
2022-08-16T14:17:00.015Z,25.56
2022-08-16T14:19:29.668Z,25.35
2022-08-16T14:22:14.639Z,25.60
2022-08-16T14:24:48.710Z,25.78
2022-08-16T14:27:18.061Z,26.25
2022-08-16T14:29:49.244Z,26.39
2022-08-16T14:32:32.667Z,25.64
2022-08-16T14:35:07.472Z,25.72
2022-08-16T14:37:35.318Z,26.31
2022-08-16T14:40:03.379Z,26.11
2022-08-16T14:42:30.966Z,26.09
2022-08-16T14:45:00.494Z,26.52
2022-08-16T14:47:34.264Z,26.27
2022-08-16T14:50:02.783Z,26.66
2022-08-16T14:52:53.950Z,27.05
2022-08-16T14:55:17.652Z,26.99
2022-08-16T14:57:47.531Z,27.41
2022-08-16T15:00:15.722Z,28.36
2022-08-16T15:02:49.858Z,29.17
2022-08-16T15:05:23.139Z,29.66
2022-08-16T15:07:51.574Z,30.00
2022-08-16T15:10:23.863Z,30.22
2022-08-16T15:12:56.322Z,30.70
2022-08-16T15:15:27.951Z,30.60
2022-08-16T15:17:56.647Z,30.96
2022-08-16T15:20:30.007Z,30.37
2022-08-16T15:22:59.828Z,30.59
2022-08-16T15:25:34.198Z,29.88
2022-08-16T15:28:04.829Z,30.07
2022-08-16T15:30:57.748Z,30.45
2022-08-16T15:33:25.448Z,31.57
2022-08-16T15:35:54.144Z,32.44
2022-08-16T15:38:56.865Z,32.48
2022-08-16T15:41:43.162Z,33.31
2022-08-16T15:44:14.219Z,33.91
2022-08-16T15:46:55.492Z,34.61
2022-08-16T15:49:38.117Z,35.30
2022-08-16T15:52:12.452Z,35.46
2022-08-16T15:54:53.180Z,36.15
2022-08-16T15:57:22.952Z,36.49
2022-08-16T15:59:52.485Z,36.80
2022-08-16T16:02:29.164Z,36.92
2022-08-16T16:05:04.575Z,37.50
2022-08-16T16:07:33.482Z,37.52
2022-08-16T16:10:03.882Z,38.10
2022-08-16T16:12:51.715Z,38.17
2022-08-16T16:15:22.668Z,38.07
2022-08-16T16:17:51.062Z,38.41
2022-08-16T16:20:27.570Z,38.35
2022-08-16T16:23:04.251Z,38.42
2022-08-16T16:25:37.261Z,38.64
2022-08-16T16:28:04.109Z,38.90
2022-08-16T16:30:44.791Z,39.08
2022-08-16T16:33:20.859Z,39.15
2022-08-16T16:35:55.458Z,39.44
2022-08-16T16:38:30.638Z,39.69
2022-08-16T16:41:08.958Z,39.88
2022-08-16T16:43:42.055Z,40.12
2022-08-16T16:46:38.979Z,40.30
2022-08-16T16:48:59.992Z,40.59
2022-08-16T16:51:28.009Z,40.70
2022-08-16T16:53:57.015Z,40.90
2022-08-16T16:56:30.192Z,41.29
2022-08-16T16:59:06.083Z,41.51
2022-08-16T17:01:56.940Z,42.11
2022-08-16T17:04:31.984Z,41.63
2022-08-16T17:07:03.582Z,42.06
2022-08-16T17:09:30.715Z,42.24
2022-08-16T17:11:58.625Z,42.88
2022-08-16T17:14:33.813Z,43.34
2022-08-16T17:17:08.751Z,43.14
2022-08-16T17:19:41.188Z,43.13
2022-08-16T17:22:20.594Z,43.22
2022-08-16T17:24:52.299Z,43.01
2022-08-16T17:27:33.104Z,43.58
2022-08-16T17:30:16.293Z,44.43
2022-08-16T17:32:54.645Z,44.44
2022-08-16T17:35:40.654Z,44.87
2022-08-16T17:38:09.403Z,45.26
2022-08-16T17:40:54.993Z,45.76
2022-08-16T17:43:34.078Z,45.96
2022-08-16T17:46:04.317Z,46.27
2022-08-16T17:48:32.158Z,46.39
2022-08-16T17:50:59.906Z,47.00
2022-08-16T17:53:27.203Z,47.15
2022-08-16T17:55:54.690Z,46.99
2022-08-16T17:58:24.138Z,47.50
2022-08-16T18:00:54.220Z,47.55
2022-08-16T18:04:02.597Z,48.16
2022-08-16T18:06:13.926Z,48.27
2022-08-16T18:08:45.114Z,48.95
2022-08-16T18:11:25.625Z,48.72
2022-08-16T18:13:54.249Z,48.65
2022-08-16T18:16:21.029Z,49.23
2022-08-16T18:18:47.849Z,48.43
2022-08-16T18:21:34.274Z,49.12
2022-08-16T18:24:01.281Z,48.78
2022-08-16T18:26:28.600Z,49.19
2022-08-16T18:28:55.406Z,48.89
2022-08-16T18:31:22.356Z,49.09
2022-08-16T18:33:49.520Z,49.26
2022-08-16T18:36:21.903Z,49.44
2022-08-16T18:38:50.038Z,49.92
2022-08-16T18:41:17.929Z,50.40
2022-08-16T18:44:24.216Z,50.86
2022-08-16T18:46:31.673Z,50.46
2022-08-16T18:48:58.733Z,50.29
2022-08-16T18:51:25.981Z,50.31
2022-08-16T18:53:53.477Z,50.80
2022-08-16T18:56:20.601Z,50.32
2022-08-16T18:58:47.435Z,50.31
2022-08-16T19:01:14.508Z,50.79
2022-08-16T19:03:41.411Z,50.80
2022-08-16T19:06:13.839Z,50.49
2022-08-16T19:08:43.524Z,49.88
2022-08-16T19:11:15.380Z,50.15
2022-08-16T19:13:44.271Z,49.84
2022-08-16T19:16:13.200Z,50.91
2022-08-16T19:18:40.121Z,50.87
2022-08-16T19:21:08.903Z,51.12
2022-08-16T19:23:37.751Z,50.85
2022-08-16T19:26:23.411Z,50.90
2022-08-16T19:28:59.891Z,50.46
2022-08-16T19:31:33.092Z,50.68
2022-08-16T19:34:01.412Z,51.12
2022-08-16T19:36:34.136Z,50.29
2022-08-16T19:39:14.222Z,50.73
2022-08-16T19:41:44.490Z,50.47
2022-08-16T19:44:11.634Z,51.03
2022-08-16T19:46:41.780Z,51.17
2022-08-16T19:49:08.668Z,50.46
2022-08-16T19:51:35.677Z,50.66
2022-08-16T19:54:04.908Z,50.66
2022-08-16T19:56:31.743Z,51.36
2022-08-16T20:01:46.363Z,50.65
2022-08-16T20:04:13.572Z,50.78
2022-08-16T20:06:41.913Z,50.75
2022-08-16T20:09:10.541Z,51.06
2022-08-16T20:11:41.530Z,50.58
2022-08-16T20:14:08.471Z,50.73
2022-08-16T20:16:35.889Z,50.87
2022-08-16T20:19:04.581Z,50.92
2022-08-16T20:21:34.499Z,50.94
2022-08-16T20:24:31.966Z,51.34
2022-08-16T20:26:48.577Z,51.35
2022-08-16T20:29:15.577Z,51.73
2022-08-16T20:31:42.517Z,51.97
2022-08-16T20:34:09.359Z,51.88
2022-08-16T20:36:36.318Z,52.46
2022-08-16T20:39:04.910Z,52.57
2022-08-16T20:41:31.866Z,53.12
2022-08-16T20:43:58.758Z,53.40
2022-08-16T20:46:26.740Z,53.32
2022-08-16T20:48:53.554Z,53.46
2022-08-16T20:51:20.373Z,53.75
2022-08-16T20:53:47.174Z,54.08
2022-08-16T20:56:14.169Z,54.05
2022-08-16T20:58:41.023Z,54.31
2022-08-16T21:01:08.191Z,54.33
2022-08-16T21:03:35.634Z,54.66
2022-08-16T21:06:02.908Z,54.81
2022-08-16T21:08:53.512Z,54.95
2022-08-16T21:11:17.867Z,55.54
2022-08-16T21:13:44.702Z,55.42
2022-08-16T21:16:11.773Z,55.83
2022-08-16T21:18:38.816Z,55.88
2022-08-16T21:21:05.661Z,56.03
2022-08-16T21:23:32.532Z,56.57
2022-08-16T21:25:59.929Z,56.60
2022-08-16T21:28:39.325Z,57.12
2022-08-16T21:31:09.591Z,57.03
2022-08-16T21:33:36.528Z,57.29
2022-08-16T21:36:03.605Z,57.41
2022-08-16T21:38:31.098Z,57.54
2022-08-16T21:41:03.430Z,57.68
2022-08-16T21:43:32.048Z,57.65
2022-08-16T21:46:03.887Z,57.92
2022-08-16T21:48:35.278Z,58.03
2022-08-16T21:51:21.193Z,57.84
2022-08-16T21:53:48.209Z,58.10
2022-08-16T21:56:17.191Z,58.14
2022-08-16T21:58:46.394Z,58.32
2022-08-16T22:01:15.288Z,58.40
2022-08-16T22:03:42.734Z,58.39
2022-08-16T22:06:13.167Z,58.61
2022-08-16T22:08:51.140Z,58.75
2022-08-16T22:11:23.941Z,59.06
2022-08-16T22:13:57.847Z,59.52
2022-08-16T22:16:32.274Z,59.70
2022-08-16T22:19:00.068Z,59.47
2022-08-16T22:21:27.167Z,59.52
2022-08-16T22:23:57.039Z,59.45
2022-08-16T22:26:31.709Z,59.69
2022-08-16T22:29:08.630Z,59.70
2022-08-16T22:31:37.316Z,60.00
2022-08-16T22:34:04.492Z,59.72
2022-08-16T22:36:33.176Z,60.16
2022-08-16T22:39:03.557Z,60.17
2022-08-16T22:41:32.717Z,60.27
2022-08-16T22:44:01.358Z,60.30
2022-08-16T22:46:28.599Z,60.49
2022-08-16T22:48:55.502Z,60.59
2022-08-16T22:51:26.090Z,60.71
2022-08-16T22:53:54.028Z,60.88
2022-08-16T22:56:22.464Z,61.01
2022-08-16T22:58:50.138Z,60.79
2022-08-16T23:01:19.495Z,61.09
2022-08-16T23:03:46.476Z,61.18
2022-08-16T23:06:14.566Z,59.88
2022-08-16T23:08:43.066Z,60.29
2022-08-16T23:11:19.530Z,60.63
2022-08-16T23:13:52.408Z,60.92
2022-08-16T23:16:33.432Z,61.30
2022-08-16T23:19:10.837Z,61.18
2022-08-16T23:21:40.842Z,60.88
2022-08-16T23:24:08.652Z,61.18
2022-08-16T23:26:48.150Z,61.01
2022-08-16T23:29:23.157Z,61.61
2022-08-16T23:31:58.624Z,62.04
2022-08-16T23:34:28.172Z,62.38
2022-08-16T23:36:55.591Z,62.44
2022-08-16T23:39:23.613Z,61.98
2022-08-16T23:41:50.892Z,62.47
2022-08-16T23:44:57.362Z,62.39
2022-08-16T23:47:06.274Z,62.78
2022-08-16T23:50:00.199Z,62.31
2022-08-16T23:52:53.083Z,62.46
2022-08-16T23:55:08.520Z,62.40
2022-08-16T23:57:35.351Z,62.73
